createdAt,value
2022-08-22T00:01:41.439Z,68.86
2022-08-22T00:02:48.245Z,69.37
2022-08-22T00:03:08.325Z,68.67
2022-08-22T00:03:08.535Z,69.46
2022-08-22T00:03:09.334Z,68.61
2022-08-22T00:03:09.768Z,68.96
2022-08-22T00:04:21.308Z,69.27
2022-08-22T00:07:26.401Z,68.85
2022-08-22T00:10:12.895Z,69.22
2022-08-22T00:13:03.802Z,69.25
2022-08-22T00:15:42.885Z,69.12
2022-08-22T00:18:17.790Z,69.11
2022-08-22T00:20:49.902Z,68.95
2022-08-22T00:23:19.248Z,68.71
2022-08-22T00:25:54.997Z,68.69
2022-08-22T00:28:31.651Z,69.11
2022-08-22T00:31:36.843Z,69.06
2022-08-22T00:34:26.467Z,69.10
2022-08-22T00:37:06.317Z,69.29
2022-08-22T00:39:40.279Z,69.02
2022-08-22T00:42:41.619Z,69.28
2022-08-22T00:45:22.501Z,69.12
2022-08-22T00:48:11.323Z,68.97
2022-08-22T00:50:53.939Z,69.57
2022-08-22T00:54:06.785Z,69.42
2022-08-22T00:56:56.065Z,69.29
2022-08-22T00:59:45.196Z,69.13
2022-08-22T01:02:32.216Z,68.97
2022-08-22T01:05:03.752Z,69.47
2022-08-22T01:07:54.570Z,69.06
2022-08-22T01:10:43.321Z,68.82
2022-08-22T01:13:38.912Z,68.76
2022-08-22T01:16:43.882Z,68.70
2022-08-22T01:19:20.418Z,68.96
2022-08-22T01:21:59.858Z,68.79
2022-08-22T01:25:18.484Z,68.92
2022-08-22T01:28:23.318Z,68.39
2022-08-22T01:31:09.980Z,68.77
2022-08-22T01:34:15.053Z,68.26
2022-08-22T01:36:54.200Z,68.43
2022-08-22T01:39:40.385Z,68.48
2022-08-22T01:42:34.565Z,68.50
2022-08-22T01:45:42.408Z,68.33
2022-08-22T01:48:19.474Z,68.63
2022-08-22T01:50:53.115Z,68.77
2022-08-22T01:53:40.149Z,68.58
2022-08-22T01:56:15.168Z,68.71
2022-08-22T01:58:55.379Z,68.88
2022-08-22T02:01:52.572Z,68.83
2022-08-22T02:04:45.178Z,68.55
2022-08-22T02:07:14.079Z,68.52
2022-08-22T02:10:26.320Z,68.18
2022-08-22T02:13:13.448Z,68.02
2022-08-22T02:16:07.032Z,68.07
2022-08-22T02:19:11.943Z,68.25
2022-08-22T02:22:14.407Z,68.16
2022-08-22T02:24:41.603Z,68.12
2022-08-22T02:27:33.480Z,68.16
2022-08-22T02:30:11.122Z,68.42
2022-08-22T02:32:41.720Z,68.50
2022-08-22T02:35:26.452Z,68.35
2022-08-22T02:38:13.322Z,68.07
2022-08-22T02:40:51.608Z,68.08
2022-08-22T02:43:24.953Z,68.37
2022-08-22T02:46:17.143Z,68.26
2022-08-22T02:48:46.141Z,68.02
2022-08-22T02:51:25.553Z,67.80
2022-08-22T02:54:26.969Z,68.07
2022-08-22T02:57:14.688Z,67.91
2022-08-22T03:00:30.921Z,68.06
2022-08-22T03:03:05.949Z,68.15
2022-08-22T03:05:36.622Z,68.12
2022-08-22T03:08:25.183Z,68.25
2022-08-22T03:10:58.787Z,68.20
2022-08-22T03:13:47.208Z,68.30
2022-08-22T03:16:26.815Z,67.97
2022-08-22T03:19:01.967Z,67.70
2022-08-22T03:21:37.363Z,67.37
2022-08-22T03:24:14.365Z,67.67
2022-08-22T03:27:03.572Z,67.95
2022-08-22T03:29:35.648Z,67.77
2022-08-22T03:32:13.180Z,67.85
2022-08-22T03:35:07.087Z,67.81
2022-08-22T03:37:37.757Z,67.71
2022-08-22T03:40:22.320Z,67.81
2022-08-22T03:43:08.888Z,67.88
2022-08-22T03:45:54.649Z,67.96
2022-08-22T03:48:34.891Z,67.57
2022-08-22T03:51:29.340Z,67.83
2022-08-22T03:54:15.717Z,67.81
2022-08-22T03:57:18.344Z,67.83
2022-08-22T04:00:20.254Z,67.63
2022-08-22T04:03:00.617Z,67.79
2022-08-22T04:05:55.640Z,67.86
2022-08-22T04:08:51.437Z,67.85
2022-08-22T04:11:41.299Z,68.02
2022-08-22T04:14:28.110Z,67.63
2022-08-22T04:17:26.883Z,67.75
2022-08-22T04:20:16.876Z,68.25
2022-08-22T04:22:58.389Z,67.92
2022-08-22T04:25:38.778Z,67.80
2022-08-22T04:28:17.397Z,68.06
2022-08-22T04:31:04.945Z,67.91
2022-08-22T04:33:37.942Z,67.86
2022-08-22T04:36:13.653Z,67.95
2022-08-22T04:38:53.123Z,68.06
2022-08-22T04:41:25.394Z,67.90
2022-08-22T04:43:57.175Z,67.59
2022-08-22T04:46:52.366Z,67.47
2022-08-22T04:49:35.923Z,67.80
2022-08-22T04:52:21.914Z,67.53
2022-08-22T04:55:10.627Z,67.60
2022-08-22T04:57:56.924Z,67.58
2022-08-22T05:00:24.536Z,67.43
2022-08-22T05:02:56.579Z,67.61
2022-08-22T05:05:26.238Z,67.44
2022-08-22T05:07:59.360Z,67.04
2022-08-22T05:10:36.432Z,66.10
2022-08-22T05:13:11.524Z,66.54
2022-08-22T05:15:42.536Z,66.88
2022-08-22T05:18:29.832Z,66.94
2022-08-22T05:21:02.196Z,67.36
2022-08-22T05:23:36.492Z,67.14
2022-08-22T05:26:06.164Z,67.29
2022-08-22T05:28:36.395Z,67.01
2022-08-22T05:31:18.902Z,67.10
2022-08-22T05:33:54.429Z,66.92
2022-08-22T05:36:32.637Z,65.81
2022-08-22T05:39:07.819Z,66.14
2022-08-22T05:41:37.323Z,66.47
2022-08-22T05:44:09.176Z,66.74
2022-08-22T05:46:39.616Z,66.23
2022-08-22T05:49:18.977Z,66.27
2022-08-22T05:51:53.343Z,66.64
2022-08-22T05:54:34.370Z,66.51
2022-08-22T05:57:31.925Z,66.13
2022-08-22T06:00:05.896Z,65.68
2022-08-22T06:02:56.043Z,65.56
2022-08-22T06:05:26.602Z,65.55
2022-08-22T06:08:33.427Z,65.88
2022-08-22T06:11:25.560Z,65.36
2022-08-22T06:14:38.850Z,66.18
2022-08-22T06:17:12.073Z,65.38
2022-08-22T06:19:42.508Z,64.97
2022-08-22T06:22:10.363Z,66.02
2022-08-22T06:24:41.219Z,65.41
2022-08-22T06:27:12.524Z,65.62
2022-08-22T06:29:45.511Z,65.35
2022-08-22T06:32:16.980Z,65.11
2022-08-22T06:35:03.289Z,64.72
2022-08-22T06:37:34.242Z,64.05
2022-08-22T06:40:04.046Z,64.30
2022-08-22T06:42:33.169Z,63.73
2022-08-22T06:45:07.251Z,63.54
2022-08-22T06:47:43.469Z,63.82
2022-08-22T06:50:34.866Z,63.50
2022-08-22T06:53:22.030Z,63.39
2022-08-22T06:55:52.994Z,63.90
2022-08-22T06:58:30.968Z,63.22
2022-08-22T07:01:11.878Z,62.61
2022-08-22T07:03:46.803Z,62.49
2022-08-22T07:06:27.827Z,62.24
2022-08-22T07:08:55.801Z,62.50
2022-08-22T07:11:28.044Z,62.79
2022-08-22T07:13:55.557Z,61.92
2022-08-22T07:16:32.816Z,62.09
2022-08-22T07:19:01.188Z,60.93
2022-08-22T07:21:31.136Z,60.82
2022-08-22T07:24:03.862Z,60.87
2022-08-22T07:26:40.818Z,60.47
2022-08-22T07:29:11.623Z,60.60
2022-08-22T07:31:51.697Z,59.77
2022-08-22T07:34:40.887Z,60.49
2022-08-22T07:37:32.649Z,59.80
2022-08-22T07:40:10.430Z,59.34
2022-08-22T07:42:44.146Z,58.89
2022-08-22T07:45:33.450Z,59.10
2022-08-22T07:48:26.828Z,58.64
2022-08-22T07:51:03.487Z,58.27
2022-08-22T07:53:39.969Z,58.34
2022-08-22T07:56:13.273Z,58.22
2022-08-22T07:58:41.966Z,58.56
2022-08-22T08:01:11.023Z,58.83
2022-08-22T08:03:38.800Z,58.23
2022-08-22T08:06:08.966Z,57.01
2022-08-22T08:08:41.717Z,57.79
2022-08-22T08:11:11.979Z,58.44
2022-08-22T08:13:46.477Z,57.99
2022-08-22T08:16:19.693Z,56.77
2022-08-22T08:18:48.441Z,55.80
2022-08-22T08:21:27.441Z,55.49
2022-08-22T08:23:55.232Z,55.70
2022-08-22T08:26:32.376Z,56.21
2022-08-22T08:29:00.554Z,55.55
2022-08-22T08:31:38.109Z,55.96
2022-08-22T08:34:17.405Z,55.36
2022-08-22T08:36:53.128Z,54.87
2022-08-22T08:39:31.083Z,54.62
2022-08-22T08:42:27.498Z,55.01
2022-08-22T08:45:19.032Z,55.41
2022-08-22T08:48:20.956Z,55.74
2022-08-22T08:51:11.190Z,55.77
2022-08-22T08:54:03.259Z,55.53
2022-08-22T08:56:54.351Z,55.96
2022-08-22T08:59:25.856Z,56.59
2022-08-22T09:02:13.765Z,56.69
2022-08-22T09:05:25.385Z,56.98
2022-08-22T09:08:30.466Z,56.76
2022-08-22T09:11:17.166Z,56.68
2022-08-22T09:14:17.099Z,57.04
2022-08-22T09:17:21.513Z,56.32
2022-08-22T09:20:17.781Z,56.16
2022-08-22T09:23:12.896Z,55.47
2022-08-22T09:25:49.797Z,55.55
2022-08-22T09:28:31.380Z,56.01
2022-08-22T09:31:17.038Z,55.87
2022-08-22T09:34:12.442Z,56.02
2022-08-22T09:36:55.180Z,56.30
2022-08-22T09:39:35.912Z,57.36
2022-08-22T09:42:35.535Z,57.33
2022-08-22T09:45:39.896Z,56.38
2022-08-22T09:48:13.242Z,56.82
2022-08-22T09:51:13.628Z,56.42
2022-08-22T09:53:58.422Z,56.71
2022-08-22T09:56:31.455Z,56.80
2022-08-22T09:59:01.547Z,56.24
2022-08-22T10:01:54.343Z,56.55
2022-08-22T10:04:53.466Z,56.10
2022-08-22T10:07:38.333Z,56.70
2022-08-22T10:10:11.360Z,57.43
2022-08-22T10:13:03.894Z,57.67
2022-08-22T10:15:45.549Z,58.07
2022-08-22T10:18:37.254Z,57.84
2022-08-22T10:21:16.219Z,58.06
2022-08-22T10:24:01.345Z,57.21
2022-08-22T10:26:45.155Z,56.84
2022-08-22T10:29:35.649Z,56.74
2022-08-22T10:32:27.040Z,57.41
2022-08-22T10:34:58.243Z,56.91
2022-08-22T10:37:33.429Z,56.08
2022-08-22T10:40:13.798Z,55.68
2022-08-22T10:42:59.159Z,53.99
2022-08-22T10:45:38.073Z,54.04
2022-08-22T10:48:09.732Z,53.41
2022-08-22T10:50:45.555Z,52.58
2022-08-22T10:53:49.127Z,53.35
2022-08-22T10:56:23.423Z,53.67
2022-08-22T10:59:05.911Z,52.45
2022-08-22T11:01:41.967Z,52.32
2022-08-22T11:04:29.959Z,52.62
2022-08-22T11:07:36.182Z,52.83
2022-08-22T11:10:19.319Z,51.28
2022-08-22T11:13:28.478Z,50.62
2022-08-22T11:16:01.549Z,50.81
2022-08-22T11:18:34.696Z,50.84
2022-08-22T11:21:05.087Z,49.82
2022-08-22T11:23:52.390Z,50.79
2022-08-22T11:26:35.758Z,50.25
2022-08-22T11:29:33.194Z,50.69
2022-08-22T11:32:12.779Z,51.72
2022-08-22T11:35:03.659Z,52.97
2022-08-22T11:37:59.514Z,52.17
2022-08-22T11:40:35.977Z,51.77
2022-08-22T11:43:41.372Z,50.88
2022-08-22T11:46:31.113Z,50.90
2022-08-22T11:49:37.656Z,50.83
2022-08-22T11:52:11.853Z,51.74
2022-08-22T11:54:45.526Z,51.45
2022-08-22T11:57:30.239Z,50.67
2022-08-22T12:00:13.095Z,50.00
2022-08-22T12:02:43.899Z,50.65
2022-08-22T12:05:34.303Z,50.13
2022-08-22T12:08:13.289Z,49.83
2022-08-22T12:10:48.309Z,49.89
2022-08-22T12:13:34.832Z,51.19
2022-08-22T12:16:49.132Z,50.79
2022-08-22T12:20:17.042Z,50.37
2022-08-22T12:23:48.921Z,50.13
2022-08-22T12:26:41.088Z,49.63
2022-08-22T12:29:20.234Z,49.85
2022-08-22T12:32:34.134Z,49.91
2022-08-22T12:35:29.674Z,50.52
2022-08-22T12:38:28.040Z,50.68
2022-08-22T12:41:35.097Z,50.07
2022-08-22T12:44:22.509Z,49.58
2022-08-22T12:47:11.900Z,49.94
2022-08-22T12:50:01.143Z,49.54
2022-08-22T12:52:46.940Z,49.14
2022-08-22T12:55:26.750Z,49.72
2022-08-22T12:58:34.008Z,49.93
2022-08-22T13:01:06.143Z,50.66
2022-08-22T13:03:37.936Z,52.26
2022-08-22T13:06:07.824Z,52.00
2022-08-22T13:08:44.124Z,51.44
2022-08-22T13:11:22.688Z,50.95
2022-08-22T13:13:56.548Z,49.59
2022-08-22T13:16:27.139Z,49.36
2022-08-22T13:18:57.703Z,49.63
2022-08-22T13:21:32.004Z,50.25
2022-08-22T13:24:16.991Z,50.89
2022-08-22T13:27:01.997Z,51.31
2022-08-22T13:30:00.349Z,52.17
2022-08-22T13:32:39.781Z,52.59
2022-08-22T13:35:24.909Z,54.31
2022-08-22T13:37:57.442Z,53.92
2022-08-22T13:40:29.011Z,54.04
2022-08-22T13:43:07.918Z,53.46
2022-08-22T13:45:36.676Z,53.27
2022-08-22T13:48:11.386Z,53.46
2022-08-22T13:51:05.378Z,52.44
2022-08-22T13:53:49.390Z,52.67
2022-08-22T13:57:07.039Z,52.18
2022-08-22T13:59:53.135Z,51.87
2022-08-22T14:02:30.948Z,52.09
2022-08-22T14:05:10.094Z,52.73
2022-08-22T14:07:54.979Z,52.79
2022-08-22T14:10:30.001Z,52.13
2022-08-22T14:12:57.429Z,52.54
2022-08-22T14:15:33.058Z,53.13
2022-08-22T14:18:18.543Z,53.14
2022-08-22T14:20:47.528Z,53.78
2022-08-22T14:23:27.119Z,53.45
2022-08-22T14:25:55.852Z,54.68
2022-08-22T14:28:30.786Z,54.40
2022-08-22T14:31:07.398Z,54.42
2022-08-22T14:33:45.359Z,54.10
2022-08-22T14:36:18.143Z,54.13
2022-08-22T14:39:11.137Z,54.91
2022-08-22T14:41:55.442Z,55.65
2022-08-22T14:44:49.091Z,55.67
2022-08-22T14:48:14.185Z,55.46
2022-08-22T14:50:44.417Z,55.09
2022-08-22T14:53:22.175Z,55.33
2022-08-22T14:56:08.166Z,55.23
2022-08-22T14:58:50.156Z,55.19
2022-08-22T15:01:21.675Z,55.50
2022-08-22T15:04:08.161Z,55.80
2022-08-22T15:06:50.456Z,55.31
2022-08-22T15:09:33.118Z,56.06
2022-08-22T15:12:03.555Z,56.36
2022-08-22T15:14:37.313Z,56.50
2022-08-22T15:17:07.699Z,55.77
2022-08-22T15:19:41.959Z,56.26
2022-08-22T15:22:15.412Z,56.73
2022-08-22T15:25:01.579Z,56.24
2022-08-22T15:27:31.739Z,56.85
2022-08-22T15:30:02.759Z,56.40
2022-08-22T15:32:42.123Z,57.73
2022-08-22T15:35:31.210Z,58.12
2022-08-22T15:38:27.713Z,58.45
2022-08-22T15:40:56.239Z,58.50
2022-08-22T15:43:33.653Z,58.93
2022-08-22T15:46:20.987Z,58.27
2022-08-22T15:49:03.189Z,58.36
2022-08-22T15:51:39.842Z,58.27
2022-08-22T15:54:24.391Z,58.81
2022-08-22T15:56:52.697Z,59.16
2022-08-22T15:59:48.130Z,58.79
2022-08-22T16:02:27.148Z,59.31
2022-08-22T16:05:06.875Z,59.14
2022-08-22T16:07:56.926Z,59.42
2022-08-22T16:10:24.719Z,59.45
2022-08-22T16:13:16.887Z,60.17
2022-08-22T16:15:51.327Z,60.28
2022-08-22T16:18:33.681Z,60.00
2022-08-22T16:21:04.463Z,60.15
2022-08-22T16:23:50.750Z,60.90
2022-08-22T16:26:28.625Z,60.57
2022-08-22T16:29:15.026Z,60.91
2022-08-22T16:31:48.387Z,60.69
2022-08-22T16:34:15.571Z,60.86
2022-08-22T16:36:51.852Z,60.69
2022-08-22T16:39:22.375Z,60.92
2022-08-22T16:41:54.155Z,61.19
2022-08-22T16:44:27.759Z,61.35
2022-08-22T16:47:16.654Z,61.62
2022-08-22T16:49:50.140Z,61.87
2022-08-22T16:52:23.271Z,61.50
2022-08-22T16:54:58.996Z,62.18
2022-08-22T16:57:32.592Z,61.75
2022-08-22T17:00:11.944Z,61.78
2022-08-22T17:02:48.324Z,61.93
2022-08-22T17:05:24.874Z,61.77
2022-08-22T17:08:08.718Z,62.23
2022-08-22T17:10:58.143Z,62.50
2022-08-22T17:13:53.488Z,62.26
2022-08-22T17:16:27.101Z,62.65
2022-08-22T17:19:21.814Z,62.23
2022-08-22T17:22:05.851Z,62.67
2022-08-22T17:24:43.078Z,62.16
2022-08-22T17:27:18.808Z,62.65
2022-08-22T17:30:07.214Z,62.68
2022-08-22T17:32:47.318Z,62.80
2022-08-22T17:38:29.237Z,63.04
2022-08-22T17:41:19.251Z,63.65
2022-08-22T17:44:13.250Z,64.08
2022-08-22T17:47:14.979Z,64.23
2022-08-22T17:49:42.444Z,63.92
2022-08-22T17:52:19.857Z,65.04
2022-08-22T17:54:53.184Z,64.84
2022-08-22T17:57:31.124Z,64.86
2022-08-22T18:00:09.705Z,64.42
2022-08-22T18:02:58.006Z,64.74
2022-08-22T18:05:29.916Z,65.04
2022-08-22T18:08:37.554Z,65.14
2022-08-22T18:11:04.026Z,64.66
2022-08-22T18:14:11.997Z,64.22
2022-08-22T18:16:42.182Z,65.08
2022-08-22T18:19:31.035Z,64.75
2022-08-22T18:22:22.663Z,64.64
2022-08-22T18:25:12.625Z,63.89
2022-08-22T18:27:44.464Z,64.63
2022-08-22T18:30:15.578Z,64.99
2022-08-22T18:32:49.328Z,64.98
2022-08-22T18:35:53.769Z,65.04
2022-08-22T18:38:34.068Z,64.89
2022-08-22T18:41:23.549Z,65.74
2022-08-22T18:43:53.691Z,65.40
2022-08-22T18:46:39.843Z,65.09
2022-08-22T18:49:22.009Z,65.12
2022-08-22T18:52:09.097Z,65.00
2022-08-22T18:54:58.200Z,65.24
2022-08-22T18:58:03.127Z,64.64
2022-08-22T19:00:42.801Z,65.02
2022-08-22T19:03:43.965Z,64.42
2022-08-22T19:06:23.163Z,64.89
2022-08-22T19:09:17.931Z,64.65
2022-08-22T19:11:57.713Z,64.26
2022-08-22T19:14:34.189Z,64.73
2022-08-22T19:17:32.015Z,64.29
2022-08-22T19:20:32.112Z,64.45
2022-08-22T19:23:33.739Z,64.34
2022-08-22T19:26:24.573Z,64.76
2022-08-22T19:28:53.668Z,65.12
2022-08-22T19:31:37.126Z,65.15
2022-08-22T19:34:19.432Z,64.59
2022-08-22T19:37:30.750Z,65.13
2022-08-22T19:40:09.306Z,65.41
2022-08-22T19:42:39.835Z,65.15
2022-08-22T19:45:19.488Z,64.66
2022-08-22T19:47:56.787Z,65.18
2022-08-22T19:50:30.962Z,64.76
2022-08-22T19:53:17.211Z,65.04
2022-08-22T19:56:01.845Z,64.36
2022-08-22T19:58:52.226Z,64.70
2022-08-22T20:01:35.439Z,64.72
2022-08-22T20:04:47.222Z,65.04
2022-08-22T20:07:20.472Z,64.89
2022-08-22T20:10:15.732Z,65.01
2022-08-22T20:13:01.294Z,64.42
2022-08-22T20:15:31.457Z,65.31
2022-08-22T20:20:59.155Z,64.43
2022-08-22T20:23:30.168Z,64.92
2022-08-22T20:25:58.023Z,64.87
2022-08-22T20:28:41.137Z,64.79
2022-08-22T20:31:21.160Z,64.76
2022-08-22T20:33:52.969Z,64.55
2022-08-22T20:36:28.621Z,64.42
2022-08-22T20:39:21.070Z,64.22
2022-08-22T20:42:00.420Z,64.71
2022-08-22T20:44:38.270Z,64.14
2022-08-22T20:47:19.507Z,64.04
2022-08-22T20:49:57.456Z,63.79
2022-08-22T20:52:38.957Z,63.77
2022-08-22T20:55:08.808Z,63.49
2022-08-22T20:57:51.688Z,63.74
2022-08-22T21:00:25.693Z,63.64
2022-08-22T21:02:53.235Z,63.77
2022-08-22T21:05:23.899Z,63.52
2022-08-22T21:08:21.917Z,63.51
2022-08-22T21:11:40.321Z,63.77
2022-08-22T21:14:18.782Z,63.94
2022-08-22T21:16:46.514Z,64.47
2022-08-22T21:19:19.370Z,64.25
2022-08-22T21:21:47.239Z,64.64
2022-08-22T21:24:14.745Z,64.63
2022-08-22T21:26:41.967Z,64.59
2022-08-22T21:29:12.450Z,63.86
2022-08-22T21:31:45.830Z,64.23
2022-08-22T21:34:19.987Z,64.07
2022-08-22T21:36:51.933Z,64.83
2022-08-22T21:39:31.298Z,64.98
2022-08-22T21:42:01.337Z,65.59
2022-08-22T21:44:40.624Z,65.99
2022-08-22T21:47:30.437Z,65.84
2022-08-22T21:50:10.992Z,65.33
2022-08-22T21:52:44.180Z,65.18
2022-08-22T21:55:36.042Z,64.71
2022-08-22T21:58:08.400Z,65.17
2022-08-22T22:00:55.018Z,64.98
2022-08-22T22:03:31.266Z,65.29
2022-08-22T22:06:00.874Z,65.17
2022-08-22T22:08:29.924Z,65.14
2022-08-22T22:11:06.207Z,65.00
2022-08-22T22:13:36.402Z,65.22
2022-08-22T22:16:06.128Z,64.99
2022-08-22T22:18:33.964Z,65.26
2022-08-22T22:21:01.889Z,65.09
2022-08-22T22:23:29.503Z,65.07
2022-08-22T22:25:58.289Z,64.78
2022-08-22T22:28:30.499Z,64.97
2022-08-22T22:30:57.823Z,65.12
2022-08-22T22:33:28.735Z,65.16
2022-08-22T22:35:59.571Z,65.35
2022-08-22T22:38:26.928Z,65.33
2022-08-22T22:40:54.268Z,65.12
2022-08-22T22:43:21.896Z,65.25
2022-08-22T22:45:49.260Z,65.01
2022-08-22T22:48:24.220Z,64.93
2022-08-22T22:50:53.421Z,64.99
2022-08-22T22:53:37.972Z,64.91
2022-08-22T22:56:09.101Z,65.34
2022-08-22T22:58:37.752Z,64.98
2022-08-22T23:01:17.133Z,65.16
2022-08-22T23:03:45.300Z,65.15
2022-08-22T23:06:16.679Z,65.23
2022-08-22T23:08:44.169Z,65.34
2022-08-22T23:11:14.328Z,65.25
2022-08-22T23:13:42.997Z,64.96
2022-08-22T23:16:13.633Z,64.90
2022-08-22T23:18:41.948Z,64.70
2022-08-22T23:21:11.568Z,64.34
2022-08-22T23:23:39.064Z,64.41
2022-08-22T23:26:07.091Z,64.39
2022-08-22T23:28:34.648Z,64.83
2022-08-22T23:31:15.702Z,64.80
2022-08-22T23:33:44.067Z,64.96
2022-08-22T23:36:19.573Z,64.64
2022-08-22T23:38:48.168Z,64.69
2022-08-22T23:41:17.690Z,64.37
2022-08-22T23:43:47.627Z,64.59
2022-08-22T23:46:16.280Z,64.57
2022-08-22T23:48:44.032Z,64.94
2022-08-22T23:51:12.590Z,64.92
2022-08-22T23:53:40.558Z,64.71
2022-08-22T23:56:19.463Z,64.75
2022-08-22T23:58:49.164Z,64.75
